createdAt,value
2018-07-24T00:02:28.478Z,51.74
2018-07-24T00:04:59.491Z,53.06
2018-07-24T00:07:30.471Z,52.64
2018-07-24T00:10:04.359Z,53.17
2018-07-24T00:12:35.369Z,52.90
2018-07-24T00:15:07.722Z,53.80
2018-07-24T00:17:38.536Z,52.90
2018-07-24T00:20:09.648Z,53.44
2018-07-24T00:22:41.549Z,54.31
2018-07-24T00:25:12.485Z,53.33
2018-07-24T00:27:43.468Z,53.65
2018-07-24T00:30:14.502Z,54.00
2018-07-24T00:32:45.553Z,54.63
2018-07-24T00:35:16.491Z,55.27
2018-07-24T00:37:47.473Z,54.98
2018-07-24T00:40:18.505Z,56.07
2018-07-24T00:42:49.464Z,56.06
2018-07-24T00:45:20.484Z,55.96
2018-07-24T00:47:51.474Z,56.04
2018-07-24T00:50:22.473Z,56.55
2018-07-24T00:52:53.473Z,55.74
2018-07-24T00:55:24.502Z,56.77
2018-07-24T00:57:55.673Z,56.60
2018-07-24T01:00:26.553Z,56.46
2018-07-24T01:02:57.481Z,55.86
2018-07-24T01:05:28.493Z,56.45
2018-07-24T01:07:59.476Z,56.25
2018-07-24T01:10:30.484Z,55.95
2018-07-24T01:13:01.464Z,57.47
2018-07-24T01:15:32.783Z,58.21
2018-07-24T01:18:03.708Z,57.51
2018-07-24T01:20:34.536Z,57.85
2018-07-24T01:23:05.503Z,58.14
2018-07-24T01:25:36.521Z,58.39
2018-07-24T01:28:07.440Z,59.03
2018-07-24T01:30:38.473Z,58.71
2018-07-24T01:33:09.464Z,59.68
2018-07-24T01:35:40.456Z,59.93
2018-07-24T01:38:11.677Z,59.61
2018-07-24T01:40:42.541Z,60.62
2018-07-24T01:43:13.485Z,60.03
2018-07-24T01:45:44.495Z,60.16
2018-07-24T01:48:15.489Z,59.82
2018-07-24T01:50:46.517Z,59.70
2018-07-24T01:53:17.468Z,60.60
2018-07-24T01:55:48.526Z,59.68
2018-07-24T01:58:19.462Z,60.28
2018-07-24T02:00:50.486Z,59.48
2018-07-24T02:03:21.428Z,59.98
2018-07-24T02:05:52.445Z,59.28
2018-07-24T02:08:23.477Z,59.67
2018-07-24T02:10:54.464Z,60.27
2018-07-24T02:13:25.469Z,59.79
2018-07-24T02:15:56.491Z,60.19
2018-07-24T02:18:27.624Z,59.99
2018-07-24T02:20:58.478Z,59.26
2018-07-24T02:23:29.485Z,59.54
2018-07-24T02:26:00.532Z,59.43
2018-07-24T02:28:31.470Z,59.57
2018-07-24T02:31:03.569Z,59.06
2018-07-24T02:33:34.478Z,59.07
2018-07-24T02:36:05.493Z,59.08
2018-07-24T02:38:36.461Z,58.98
2018-07-24T02:41:07.514Z,58.26
2018-07-24T02:43:38.485Z,58.73
2018-07-24T02:46:09.510Z,58.49
2018-07-24T02:48:40.493Z,58.43
2018-07-24T02:51:11.494Z,57.67
2018-07-24T02:53:42.461Z,57.89
2018-07-24T02:56:13.468Z,58.32
2018-07-24T02:58:44.473Z,57.99
2018-07-24T03:01:15.461Z,58.90
2018-07-24T03:03:46.491Z,59.45
2018-07-24T03:06:17.491Z,59.62
2018-07-24T03:08:48.509Z,59.23
2018-07-24T03:11:19.492Z,59.47
2018-07-24T03:13:50.462Z,59.47
2018-07-24T03:16:21.470Z,59.21
2018-07-24T03:18:52.472Z,59.55
2018-07-24T03:21:23.450Z,59.79
2018-07-24T03:23:54.412Z,60.64
2018-07-24T03:26:25.451Z,60.22
2018-07-24T03:28:56.485Z,61.17
2018-07-24T03:31:27.473Z,60.92
2018-07-24T03:33:58.471Z,61.45
2018-07-24T03:36:29.513Z,61.66
2018-07-24T03:39:00.524Z,62.17
2018-07-24T03:41:31.481Z,63.26
2018-07-24T03:44:02.466Z,63.10
2018-07-24T03:46:33.475Z,64.00
2018-07-24T03:49:04.519Z,64.50
2018-07-24T03:51:35.477Z,64.43
2018-07-24T03:54:06.508Z,64.21
2018-07-24T03:56:37.493Z,64.95
2018-07-24T03:59:08.459Z,63.90
2018-07-24T04:01:39.466Z,64.07
2018-07-24T04:04:10.477Z,64.10
2018-07-24T04:06:41.458Z,65.32
2018-07-24T04:09:13.021Z,63.89
2018-07-24T04:11:44.440Z,63.96
2018-07-24T04:14:15.526Z,63.28
2018-07-24T04:16:46.498Z,62.88
2018-07-24T04:19:17.506Z,62.91
2018-07-24T04:21:48.505Z,63.16
2018-07-24T04:24:19.473Z,62.49
2018-07-24T04:26:51.290Z,62.33
2018-07-24T04:29:22.374Z,62.82
2018-07-24T04:31:53.489Z,63.42
2018-07-24T04:34:24.472Z,64.06
2018-07-24T04:36:55.478Z,63.76
2018-07-24T04:39:26.461Z,63.44
2018-07-24T04:41:57.496Z,63.62
2018-07-24T04:44:28.497Z,63.79
2018-07-24T04:46:59.504Z,63.64
2018-07-24T04:49:30.517Z,64.19
2018-07-24T04:52:01.439Z,63.26
2018-07-24T04:54:32.532Z,63.95
2018-07-24T04:57:03.526Z,63.72
2018-07-24T04:59:34.633Z,64.01
2018-07-24T05:02:05.465Z,62.78
2018-07-24T05:04:36.506Z,63.18
2018-07-24T05:07:07.554Z,63.53
2018-07-24T05:09:38.551Z,63.22
2018-07-24T05:12:09.483Z,62.42
2018-07-24T05:14:40.485Z,62.61
2018-07-24T05:17:11.506Z,62.83
2018-07-24T05:19:42.486Z,61.74
2018-07-24T05:22:13.495Z,62.23
2018-07-24T05:24:44.530Z,61.03
2018-07-24T05:27:16.302Z,60.81
2018-07-24T05:29:47.585Z,61.57
2018-07-24T05:32:18.628Z,60.90
2018-07-24T05:34:49.482Z,61.04
2018-07-24T05:37:20.485Z,60.59
2018-07-24T05:39:51.485Z,60.26
2018-07-24T05:42:22.578Z,60.76
2018-07-24T05:44:53.479Z,60.19
2018-07-24T05:47:24.476Z,59.85
2018-07-24T05:49:55.483Z,59.81
2018-07-24T05:52:26.484Z,59.16
2018-07-24T05:54:57.523Z,58.25
2018-07-24T05:57:28.493Z,58.43
2018-07-24T05:59:59.501Z,58.32
2018-07-24T06:02:30.509Z,57.90
2018-07-24T06:05:01.489Z,56.85
2018-07-24T06:07:32.517Z,56.64
2018-07-24T06:10:03.501Z,56.26
2018-07-24T06:12:34.469Z,54.65
2018-07-24T06:15:06.445Z,55.19
2018-07-24T06:17:37.488Z,53.57
2018-07-24T06:20:10.678Z,52.61
2018-07-24T06:22:41.545Z,52.75
2018-07-24T06:25:12.517Z,52.76
2018-07-24T06:27:43.482Z,51.89
2018-07-24T06:30:14.503Z,51.06
2018-07-24T06:32:45.497Z,50.91
2018-07-24T06:35:16.494Z,52.18
2018-07-24T06:37:47.498Z,50.92
2018-07-24T06:40:18.487Z,51.48
2018-07-24T06:42:49.497Z,50.23
2018-07-24T06:47:56.616Z,49.11
2018-07-24T06:50:27.465Z,50.20
2018-07-24T06:52:58.510Z,50.11
2018-07-24T06:55:29.481Z,49.92
2018-07-24T06:58:00.512Z,48.96
2018-07-24T07:00:31.521Z,48.55
2018-07-24T07:03:02.514Z,48.72
2018-07-24T07:05:33.536Z,48.13
2018-07-24T07:08:04.498Z,48.58
2018-07-24T07:10:35.481Z,47.79
2018-07-24T07:13:06.660Z,47.28
2018-07-24T07:15:37.698Z,47.16
2018-07-24T07:18:08.602Z,45.84
2018-07-24T07:20:39.592Z,45.73
2018-07-24T07:23:10.476Z,46.07
2018-07-24T07:25:41.481Z,45.81
2018-07-24T07:28:12.483Z,44.91
2018-07-24T07:30:43.473Z,44.15
2018-07-24T07:33:14.473Z,45.25
2018-07-24T07:35:45.481Z,44.80
2018-07-24T07:38:16.485Z,45.78
2018-07-24T07:40:47.565Z,45.67
2018-07-24T07:43:18.572Z,44.36
2018-07-24T07:45:49.437Z,44.14
2018-07-24T07:48:20.485Z,43.41
2018-07-24T07:50:51.481Z,43.20
2018-07-24T07:53:22.507Z,42.32
2018-07-24T07:55:53.468Z,43.12
2018-07-24T07:58:24.468Z,42.74
2018-07-24T08:00:55.486Z,42.23
2018-07-24T08:03:26.502Z,42.38
2018-07-24T08:05:57.478Z,41.87
2018-07-24T08:08:28.488Z,42.08
2018-07-24T08:10:59.483Z,41.93
2018-07-24T08:13:30.514Z,41.50
2018-07-24T08:16:01.477Z,40.73
2018-07-24T08:18:32.496Z,40.00
2018-07-24T08:21:03.481Z,39.92
2018-07-24T08:23:34.523Z,40.31
2018-07-24T08:26:05.510Z,39.02
2018-07-24T08:28:36.513Z,39.06
2018-07-24T08:31:07.550Z,38.39
2018-07-24T08:33:38.493Z,38.10
2018-07-24T08:36:09.492Z,37.60
2018-07-24T08:38:40.473Z,36.92
2018-07-24T08:41:11.463Z,37.23
2018-07-24T08:43:42.501Z,35.97
2018-07-24T08:46:13.493Z,35.94
2018-07-24T08:48:44.501Z,34.29
2018-07-24T08:51:15.489Z,34.14
2018-07-24T08:53:47.090Z,34.37
2018-07-24T08:56:17.504Z,33.02
2018-07-24T08:58:48.505Z,32.71
2018-07-24T09:01:19.477Z,31.15
2018-07-24T09:03:50.575Z,31.52
2018-07-24T09:06:21.597Z,30.67
2018-07-24T09:08:52.616Z,31.53
2018-07-24T09:11:23.449Z,31.03
2018-07-24T09:13:54.509Z,29.74
2018-07-24T09:16:25.662Z,30.30
2018-07-24T09:18:56.554Z,29.78
2018-07-24T09:21:27.509Z,28.29
2018-07-24T09:23:58.555Z,30.17
2018-07-24T09:26:29.588Z,30.31
2018-07-24T09:29:00.607Z,28.65
2018-07-24T09:31:31.586Z,28.52
2018-07-24T09:34:02.501Z,27.86
2018-07-24T09:36:33.474Z,28.67
2018-07-24T09:39:06.634Z,27.30
2018-07-24T09:41:38.004Z,28.14
2018-07-24T09:44:09.382Z,27.41
2018-07-24T09:46:40.511Z,28.15
2018-07-24T09:49:11.510Z,27.31
2018-07-24T09:51:42.484Z,26.53
2018-07-24T09:54:13.531Z,27.73
2018-07-24T09:56:44.526Z,28.54
2018-07-24T09:59:15.489Z,26.52
2018-07-24T10:01:46.474Z,25.94
2018-07-24T10:04:17.503Z,26.47
2018-07-24T10:06:48.545Z,26.23
2018-07-24T10:09:19.506Z,26.26
2018-07-24T10:11:50.505Z,24.78
2018-07-24T10:14:21.485Z,25.51
2018-07-24T10:16:52.541Z,25.62
2018-07-24T10:19:23.492Z,25.14
2018-07-24T10:21:54.504Z,24.43
2018-07-24T10:24:25.594Z,26.02
2018-07-24T10:26:56.577Z,24.21
2018-07-24T10:29:27.467Z,25.48
2018-07-24T10:31:58.484Z,24.37
2018-07-24T10:34:29.621Z,25.07
2018-07-24T10:37:00.465Z,26.20
2018-07-24T10:39:31.473Z,23.95
2018-07-24T10:42:02.482Z,24.54
2018-07-24T10:44:33.474Z,25.26
2018-07-24T10:47:04.476Z,25.18
2018-07-24T10:49:35.512Z,24.78
2018-07-24T10:52:06.552Z,24.31
2018-07-24T10:54:37.502Z,24.07
2018-07-24T10:57:08.418Z,24.11
2018-07-24T10:59:39.515Z,23.31
2018-07-24T11:02:10.499Z,24.25
2018-07-24T11:04:41.479Z,23.28
2018-07-24T11:07:12.537Z,25.32
2018-07-24T11:09:43.542Z,24.82
2018-07-24T11:12:14.502Z,24.45
2018-07-24T11:14:45.521Z,23.30
2018-07-24T11:17:16.542Z,23.17
2018-07-24T11:19:47.522Z,23.51
2018-07-24T11:22:18.618Z,23.29
2018-07-24T11:24:49.611Z,23.95
2018-07-24T11:27:20.715Z,24.30
2018-07-24T11:29:51.609Z,23.36
2018-07-24T11:32:22.477Z,24.63
2018-07-24T11:34:53.509Z,23.99
2018-07-24T11:37:24.531Z,23.89
2018-07-24T11:39:55.510Z,23.87
2018-07-24T11:42:26.669Z,23.15
2018-07-24T11:44:57.682Z,22.80
2018-07-24T11:47:28.550Z,22.03
2018-07-24T11:49:59.502Z,23.22
2018-07-24T11:52:30.634Z,23.09
2018-07-24T11:55:01.639Z,22.58
2018-07-24T11:57:32.554Z,23.46
2018-07-24T12:00:03.570Z,22.81
2018-07-24T12:02:34.530Z,23.38
2018-07-24T12:05:05.609Z,22.00
2018-07-24T12:07:36.553Z,21.64
2018-07-24T12:10:08.005Z,21.38
2018-07-24T12:12:39.258Z,20.56
2018-07-24T12:15:10.448Z,22.44
2018-07-24T12:17:41.415Z,21.15
2018-07-24T12:20:12.526Z,20.47
2018-07-24T12:22:43.497Z,20.78
2018-07-24T12:25:14.535Z,20.92
2018-07-24T12:27:45.489Z,19.96
2018-07-24T12:30:16.478Z,21.09
2018-07-24T12:32:47.470Z,22.74
2018-07-24T12:35:18.546Z,22.71
2018-07-24T12:37:49.517Z,20.96
2018-07-24T12:40:20.548Z,22.99
2018-07-24T12:42:51.530Z,22.47
2018-07-24T12:45:22.519Z,21.66
2018-07-24T12:47:53.550Z,21.82
2018-07-24T12:50:24.498Z,21.31
2018-07-24T12:52:55.545Z,21.14
2018-07-24T12:55:26.522Z,21.76
2018-07-24T12:57:57.733Z,21.72
2018-07-24T13:00:28.554Z,21.80
2018-07-24T13:02:59.491Z,21.58
2018-07-24T13:05:30.603Z,20.34
2018-07-24T13:08:01.598Z,20.64
2018-07-24T13:10:32.503Z,20.63
2018-07-24T13:13:03.530Z,21.38
2018-07-24T13:15:34.562Z,22.85
2018-07-24T13:18:05.542Z,22.22
2018-07-24T13:20:36.513Z,22.26
2018-07-24T13:23:07.560Z,24.20
2018-07-24T13:25:38.541Z,25.14
2018-07-24T13:28:09.529Z,22.86
2018-07-24T13:30:40.538Z,22.67
2018-07-24T13:33:12.549Z,22.84
2018-07-24T13:35:43.542Z,22.90
2018-07-24T13:38:14.614Z,22.59
2018-07-24T13:40:45.685Z,22.62
2018-07-24T13:43:16.617Z,21.76
2018-07-24T13:45:47.533Z,21.54
2018-07-24T13:48:18.558Z,21.34
2018-07-24T13:50:49.596Z,21.37
2018-07-24T13:53:20.586Z,22.02
2018-07-24T13:55:51.609Z,22.12
2018-07-24T13:58:22.587Z,22.22
2018-07-24T14:00:53.580Z,22.64
2018-07-24T14:03:24.601Z,22.73
2018-07-24T14:05:55.599Z,22.13
2018-07-24T14:08:26.638Z,23.19
2018-07-24T14:10:57.665Z,24.17
2018-07-24T14:13:34.462Z,22.57
2018-07-24T14:16:05.534Z,23.12
2018-07-24T14:18:36.567Z,23.18
2018-07-24T14:21:07.417Z,22.46
2018-07-24T14:23:38.611Z,22.02
2018-07-24T14:26:09.714Z,22.84
2018-07-24T14:28:40.568Z,21.77
2018-07-24T14:31:11.605Z,21.81
2018-07-24T14:33:42.486Z,21.37
2018-07-24T14:36:13.489Z,21.96
2018-07-24T14:38:44.528Z,22.97
2018-07-24T14:41:15.588Z,22.52
2018-07-24T14:43:46.530Z,21.70
2018-07-24T14:46:17.570Z,23.11
2018-07-24T14:48:48.509Z,22.71
2018-07-24T14:51:19.543Z,23.26
2018-07-24T14:53:50.533Z,23.26
2018-07-24T14:56:21.514Z,22.69
2018-07-24T14:58:52.640Z,22.16
2018-07-24T15:01:23.553Z,23.47
2018-07-24T15:03:54.505Z,23.87
2018-07-24T15:06:25.557Z,23.13
2018-07-24T15:08:56.827Z,22.02
2018-07-24T15:11:27.304Z,21.93
2018-07-24T15:13:58.402Z,22.00
2018-07-24T15:16:29.586Z,22.56
2018-07-24T15:19:00.514Z,23.34
2018-07-24T15:21:31.522Z,23.50
2018-07-24T15:24:02.534Z,23.24
2018-07-24T15:26:33.554Z,23.50
2018-07-24T15:29:04.542Z,23.23
2018-07-24T15:31:35.557Z,23.43
2018-07-24T15:34:06.596Z,24.46
2018-07-24T15:36:37.557Z,24.71
2018-07-24T15:39:13.385Z,24.14
2018-07-24T15:41:45.200Z,24.79
2018-07-24T15:44:16.567Z,24.76
2018-07-24T15:46:47.568Z,24.04
2018-07-24T15:49:18.505Z,24.63
2018-07-24T15:51:49.545Z,24.56
2018-07-24T15:54:20.518Z,24.82
2018-07-24T15:56:51.501Z,24.72
2018-07-24T15:59:22.461Z,24.53
2018-07-24T16:01:53.492Z,25.21
2018-07-24T16:04:24.493Z,25.07
2018-07-24T16:06:55.551Z,24.79
2018-07-24T16:09:26.488Z,24.78
2018-07-24T16:11:57.510Z,25.43
2018-07-24T16:14:28.629Z,25.21
2018-07-24T16:17:01.244Z,25.68
2018-07-24T16:19:32.394Z,25.52
2018-07-24T16:22:03.573Z,24.89
2018-07-24T16:24:34.521Z,25.06
2018-07-24T16:27:05.630Z,25.49
2018-07-24T16:29:36.610Z,26.08
2018-07-24T16:32:07.599Z,25.79
2018-07-24T16:34:38.567Z,25.56
2018-07-24T16:37:09.615Z,25.71
2018-07-24T16:39:40.526Z,25.35
2018-07-24T16:42:11.565Z,25.22
2018-07-24T16:44:42.578Z,25.29
2018-07-24T16:47:13.590Z,25.85
2018-07-24T16:49:44.601Z,26.21
2018-07-24T16:52:15.549Z,26.02
2018-07-24T16:54:46.813Z,26.62
2018-07-24T16:57:18.244Z,25.80
2018-07-24T16:59:49.428Z,25.56
2018-07-24T17:02:20.611Z,25.38
2018-07-24T17:04:51.565Z,25.94
2018-07-24T17:07:22.537Z,26.58
2018-07-24T17:09:53.594Z,26.53
2018-07-24T17:12:24.574Z,26.48
2018-07-24T17:14:55.617Z,26.27
2018-07-24T17:17:26.509Z,26.44
2018-07-24T17:19:57.538Z,26.50
2018-07-24T17:22:28.543Z,26.62
2018-07-24T17:24:59.496Z,26.69
2018-07-24T17:27:30.603Z,26.29
2018-07-24T17:30:01.534Z,26.18
2018-07-24T17:32:32.551Z,25.71
2018-07-24T17:35:03.689Z,25.73
2018-07-24T17:37:34.635Z,26.64
2018-07-24T17:40:05.676Z,27.46
2018-07-24T17:42:36.633Z,27.77
2018-07-24T17:45:07.640Z,27.51
2018-07-24T17:47:39.029Z,27.57
2018-07-24T17:50:10.301Z,27.66
2018-07-24T17:52:41.440Z,27.80
2018-07-24T17:55:12.506Z,28.08
2018-07-24T17:57:43.525Z,27.43
2018-07-24T18:00:14.566Z,27.71
2018-07-24T18:02:45.535Z,27.52
2018-07-24T18:05:16.560Z,27.71
2018-07-24T18:07:47.575Z,27.68
2018-07-24T18:10:18.626Z,28.58
2018-07-24T18:12:49.592Z,28.49
2018-07-24T18:15:20.585Z,28.76
2018-07-24T18:17:51.541Z,28.68
2018-07-24T18:20:22.489Z,28.84
2018-07-24T18:22:53.623Z,28.80
2018-07-24T18:25:24.581Z,29.46
2018-07-24T18:27:56.633Z,29.64
2018-07-24T18:30:27.487Z,29.48
2018-07-24T18:32:58.558Z,30.35
2018-07-24T18:35:29.546Z,29.99
2018-07-24T18:38:00.591Z,29.97
2018-07-24T18:40:31.549Z,30.29
2018-07-24T18:43:02.589Z,29.83
2018-07-24T18:45:33.656Z,30.30
2018-07-24T18:48:04.683Z,30.19
2018-07-24T18:50:35.610Z,30.84
2018-07-24T18:53:06.647Z,31.53
2018-07-24T18:55:37.661Z,31.16
2018-07-24T18:58:08.646Z,32.09
2018-07-24T19:00:39.657Z,31.28
2018-07-24T19:03:10.673Z,31.51
2018-07-24T19:05:41.682Z,32.19
2018-07-24T19:08:12.730Z,32.13
2018-07-24T19:10:43.680Z,32.78
2018-07-24T19:13:14.622Z,31.22
2018-07-24T19:15:45.562Z,31.86
2018-07-24T19:18:16.558Z,31.48
2018-07-24T19:20:47.636Z,31.67
2018-07-24T19:23:18.595Z,31.02
2018-07-24T19:25:49.668Z,31.65
2018-07-24T19:28:20.616Z,31.53
2018-07-24T19:30:51.594Z,31.75
2018-07-24T19:33:22.543Z,31.65
2018-07-24T19:35:53.580Z,32.18
2018-07-24T19:38:24.537Z,32.17
2018-07-24T19:40:55.567Z,32.05
2018-07-24T19:43:26.517Z,32.29
2018-07-24T19:45:57.502Z,32.30
2018-07-24T19:48:28.508Z,31.98
2018-07-24T19:50:59.534Z,32.79
2018-07-24T19:53:30.518Z,32.83
2018-07-24T19:56:01.661Z,32.56
2018-07-24T19:58:32.573Z,32.75
2018-07-24T20:01:03.535Z,33.21
2018-07-24T20:03:34.593Z,33.23
2018-07-24T20:06:05.519Z,32.77
2018-07-24T20:08:36.505Z,32.74
2018-07-24T20:11:07.549Z,32.96
2018-07-24T20:13:38.523Z,32.79
2018-07-24T20:16:12.515Z,32.97
2018-07-24T20:18:43.816Z,32.93
2018-07-24T20:21:14.295Z,32.84
2018-07-24T20:23:45.472Z,33.32
2018-07-24T20:26:16.546Z,33.65
2018-07-24T20:28:47.655Z,33.40
2018-07-24T20:31:18.679Z,34.68
2018-07-24T20:33:49.622Z,35.75
2018-07-24T20:36:20.484Z,35.77
2018-07-24T20:38:51.500Z,35.90
2018-07-24T20:41:22.508Z,35.65
2018-07-24T20:43:53.529Z,35.87
2018-07-24T20:46:24.549Z,36.38
2018-07-24T20:48:55.490Z,36.93
2018-07-24T20:51:26.500Z,37.15
2018-07-24T20:53:57.484Z,37.68
2018-07-24T20:56:29.295Z,36.69
2018-07-24T20:59:00.529Z,36.53
2018-07-24T21:01:31.498Z,36.96
2018-07-24T21:04:02.489Z,36.74
2018-07-24T21:06:33.657Z,36.98
2018-07-24T21:09:07.521Z,37.00
2018-07-24T21:11:39.526Z,36.52
2018-07-24T21:14:11.234Z,37.17
2018-07-24T21:16:42.371Z,36.48
2018-07-24T21:19:13.488Z,37.29
2018-07-24T21:21:44.541Z,37.67
2018-07-24T21:24:15.593Z,36.89
2018-07-24T21:26:46.527Z,37.25
2018-07-24T21:29:18.529Z,38.07
2018-07-24T21:31:49.548Z,37.48
2018-07-24T21:34:20.529Z,37.04
2018-07-24T21:36:51.549Z,38.30
2018-07-24T21:39:22.499Z,38.24
2018-07-24T21:41:53.513Z,38.62
2018-07-24T21:44:24.530Z,38.98
2018-07-24T21:46:55.525Z,38.77
2018-07-24T21:49:26.529Z,38.96
2018-07-24T21:51:57.537Z,38.96
2018-07-24T21:54:28.544Z,39.08
2018-07-24T21:56:59.545Z,39.89
2018-07-24T21:59:30.546Z,39.45
2018-07-24T22:02:01.583Z,39.16
2018-07-24T22:04:32.563Z,40.25
2018-07-24T22:07:03.501Z,40.91
2018-07-24T22:09:34.574Z,40.40
2018-07-24T22:12:05.582Z,39.81
2018-07-24T22:14:36.556Z,41.12
2018-07-24T22:17:07.531Z,41.49
2018-07-24T22:19:38.543Z,42.21
2018-07-24T22:22:09.562Z,42.07
2018-07-24T22:24:40.597Z,42.35
2018-07-24T22:27:11.545Z,42.30
2018-07-24T22:29:42.526Z,42.43
2018-07-24T22:32:13.477Z,43.07
2018-07-24T22:34:44.513Z,43.63
2018-07-24T22:37:15.466Z,44.56
2018-07-24T22:39:46.492Z,45.01
2018-07-24T22:42:17.496Z,45.88
2018-07-24T22:44:48.512Z,46.01
2018-07-24T22:47:19.506Z,46.13
2018-07-24T22:49:50.758Z,46.54
2018-07-24T22:52:21.653Z,46.37
2018-07-24T22:54:52.726Z,46.82
2018-07-24T22:57:23.698Z,47.13
2018-07-24T22:59:54.643Z,46.95
2018-07-24T23:02:25.492Z,46.32
2018-07-24T23:04:56.551Z,47.08
2018-07-24T23:07:27.481Z,47.14
2018-07-24T23:09:58.558Z,47.48
2018-07-24T23:12:30.525Z,47.68
2018-07-24T23:15:01.587Z,47.36
2018-07-24T23:17:32.577Z,46.35
2018-07-24T23:20:03.607Z,47.44
2018-07-24T23:22:34.599Z,46.37
2018-07-24T23:25:05.595Z,47.00
2018-07-24T23:27:36.567Z,46.73
2018-07-24T23:30:07.602Z,46.69
2018-07-24T23:32:38.555Z,47.53
2018-07-24T23:37:42.335Z,47.24
2018-07-24T23:40:13.348Z,47.11
2018-07-24T23:42:44.356Z,48.01
2018-07-24T23:45:15.382Z,47.67
2018-07-24T23:47:46.489Z,48.07
2018-07-24T23:50:17.506Z,48.99
2018-07-24T23:52:48.486Z,48.19
2018-07-24T23:55:19.543Z,49.36
2018-07-24T23:57:50.518Z,48.72
